sensor_id;sensor_type;location;lat;lon;timestamp;P1;durP1;ratioP1;P2;durP2;ratioP2
823;SDS011;373;49.342;8.146;2023-02-07T00:00:25;2.92;;;2.63;;
823;SDS011;373;49.342;8.146;2023-02-07T00:02:57;3.30;;;2.83;;
823;SDS011;373;49.342;8.146;2023-02-07T00:05:24;2.95;;;2.70;;
823;SDS011;373;49.342;8.146;2023-02-07T00:07:53;3.90;;;2.85;;
823;SDS011;373;49.342;8.146;2023-02-07T00:10:21;3.53;;;3.03;;
823;SDS011;373;49.342;8.146;2023-02-07T00:12:50;3.38;;;2.95;;
823;SDS011;373;49.342;8.146;2023-02-07T00:15:17;3.30;;;2.88;;
823;SDS011;373;49.342;8.146;2023-02-07T00:17:49;5.25;;;3.60;;
823;SDS011;373;49.342;8.146;2023-02-07T00:20:20;3.05;;;2.75;;
823;SDS011;373;49.342;8.146;2023-02-07T00:22:49;3.25;;;2.92;;
823;SDS011;373;49.342;8.146;2023-02-07T00:25:19;3.53;;;3.05;;
823;SDS011;373;49.342;8.146;2023-02-07T00:27:49;4.63;;;2.97;;
823;SDS011;373;49.342;8.146;2023-02-07T00:30:17;5.40;;;4.05;;
823;SDS011;373;49.342;8.146;2023-02-07T00:32:45;5.10;;;3.50;;
823;SDS011;373;49.342;8.146;2023-02-07T00:35:14;6.57;;;4.38;;
823;SDS011;373;49.342;8.146;2023-02-07T00:37:43;3.92;;;3.58;;
823;SDS011;373;49.342;8.146;2023-02-07T00:40:10;4.07;;;3.38;;
823;SDS011;373;49.342;8.146;2023-02-07T00:42:37;5.03;;;4.43;;
823;SDS011;373;49.342;8.146;2023-02-07T00:45:05;5.00;;;4.45;;
823;SDS011;373;49.342;8.146;2023-02-07T00:47:32;6.93;;;4.10;;
823;SDS011;373;49.342;8.146;2023-02-07T00:50:01;6.63;;;4.30;;
823;SDS011;373;49.342;8.146;2023-02-07T00:52:28;5.00;;;4.03;;
823;SDS011;373;49.342;8.146;2023-02-07T00:54:55;6.55;;;4.45;;
823;SDS011;373;49.342;8.146;2023-02-07T00:57:25;6.88;;;4.53;;
823;SDS011;373;49.342;8.146;2023-02-07T00:59:52;4.90;;;4.18;;
823;SDS011;373;49.342;8.146;2023-02-07T01:02:20;6.55;;;4.80;;
823;SDS011;373;49.342;8.146;2023-02-07T01:04:48;4.93;;;4.43;;
823;SDS011;373;49.342;8.146;2023-02-07T01:07:22;4.55;;;3.40;;
823;SDS011;373;49.342;8.146;2023-02-07T01:09:49;5.35;;;4.15;;
823;SDS011;373;49.342;8.146;2023-02-07T01:12:18;5.68;;;4.88;;
823;SDS011;373;49.342;8.146;2023-02-07T01:14:45;5.30;;;4.38;;
823;SDS011;373;49.342;8.146;2023-02-07T01:17:12;4.93;;;3.85;;
823;SDS011;373;49.342;8.146;2023-02-07T01:19:56;5.05;;;3.97;;
823;SDS011;373;49.342;8.146;2023-02-07T01:22:25;4.60;;;4.20;;
823;SDS011;373;49.342;8.146;2023-02-07T01:24:53;4.18;;;3.78;;
823;SDS011;373;49.342;8.146;2023-02-07T01:27:21;6.10;;;4.15;;
823;SDS011;373;49.342;8.146;2023-02-07T01:29:52;4.65;;;4.15;;
823;SDS011;373;49.342;8.146;2023-02-07T01:32:19;5.43;;;4.15;;
823;SDS011;373;49.342;8.146;2023-02-07T01:34:49;6.70;;;5.00;;
823;SDS011;373;49.342;8.146;2023-02-07T01:37:33;5.07;;;4.38;;
823;SDS011;373;49.342;8.146;2023-02-07T01:40:00;5.10;;;4.60;;
823;SDS011;373;49.342;8.146;2023-02-07T01:42:28;4.38;;;3.85;;
823;SDS011;373;49.342;8.146;2023-02-07T01:45:00;4.40;;;3.95;;
823;SDS011;373;49.342;8.146;2023-02-07T01:47:30;4.78;;;4.05;;
823;SDS011;373;49.342;8.146;2023-02-07T01:49:58;5.00;;;4.03;;
823;SDS011;373;49.342;8.146;2023-02-07T01:52:27;4.32;;;3.92;;
823;SDS011;373;49.342;8.146;2023-02-07T01:55:05;4.93;;;4.43;;
823;SDS011;373;49.342;8.146;2023-02-07T01:57:36;5.82;;;4.32;;
823;SDS011;373;49.342;8.146;2023-02-07T02:00:05;4.03;;;3.63;;
823;SDS011;373;49.342;8.146;2023-02-07T02:02:40;5.53;;;3.92;;
823;SDS011;373;49.342;8.146;2023-02-07T02:05:11;4.95;;;4.18;;
823;SDS011;373;49.342;8.146;2023-02-07T02:07:40;4.55;;;4.15;;
823;SDS011;373;49.342;8.146;2023-02-07T02:10:13;5.28;;;3.83;;
823;SDS011;373;49.342;8.146;2023-02-07T02:12:55;5.25;;;4.75;;
823;SDS011;373;49.342;8.146;2023-02-07T02:15:34;4.90;;;3.83;;
823;SDS011;373;49.342;8.146;2023-02-07T02:18:14;4.70;;;3.45;;
823;SDS011;373;49.342;8.146;2023-02-07T02:21:13;4.28;;;3.83;;
823;SDS011;373;49.342;8.146;2023-02-07T02:24:22;5.30;;;4.80;;
823;SDS011;373;49.342;8.146;2023-02-07T02:27:12;7.50;;;4.03;;
823;SDS011;373;49.342;8.146;2023-02-07T02:30:01;4.72;;;4.15;;
823;SDS011;373;49.342;8.146;2023-02-07T02:33:02;4.97;;;4.40;;
823;SDS011;373;49.342;8.146;2023-02-07T02:35:50;4.57;;;4.18;;
823;SDS011;373;49.342;8.146;2023-02-07T02:38:30;5.50;;;3.60;;
823;SDS011;373;49.342;8.146;2023-02-07T02:41:02;5.40;;;4.65;;
823;SDS011;373;49.342;8.146;2023-02-07T02:43:35;4.88;;;4.05;;
823;SDS011;373;49.342;8.146;2023-02-07T02:46:08;6.97;;;4.63;;
823;SDS011;373;49.342;8.146;2023-02-07T02:48:41;6.32;;;4.90;;
823;SDS011;373;49.342;8.146;2023-02-07T02:51:10;5.80;;;4.88;;
823;SDS011;373;49.342;8.146;2023-02-07T02:53:37;4.75;;;4.25;;
823;SDS011;373;49.342;8.146;2023-02-07T02:59:03;4.80;;;4.18;;
823;SDS011;373;49.342;8.146;2023-02-07T03:02:00;5.22;;;4.60;;
823;SDS011;373;49.342;8.146;2023-02-07T03:04:43;5.10;;;4.60;;
823;SDS011;373;49.342;8.146;2023-02-07T03:07:38;5.03;;;4.50;;
823;SDS011;373;49.342;8.146;2023-02-07T03:10:16;5.88;;;4.78;;
823;SDS011;373;49.342;8.146;2023-02-07T03:12:50;5.68;;;4.72;;
823;SDS011;373;49.342;8.146;2023-02-07T03:15:25;4.68;;;4.28;;
823;SDS011;373;49.342;8.146;2023-02-07T03:18:00;5.22;;;4.60;;
823;SDS011;373;49.342;8.146;2023-02-07T03:20:34;4.95;;;4.47;;
823;SDS011;373;49.342;8.146;2023-02-07T03:23:05;5.28;;;4.75;;
823;SDS011;373;49.342;8.146;2023-02-07T03:25:35;6.35;;;4.40;;
823;SDS011;373;49.342;8.146;2023-02-07T03:28:07;5.57;;;4.78;;
823;SDS011;373;49.342;8.146;2023-02-07T03:30:36;6.68;;;6.05;;
823;SDS011;373;49.342;8.146;2023-02-07T03:33:05;6.10;;;5.50;;
823;SDS011;373;49.342;8.146;2023-02-07T03:35:38;6.72;;;5.80;;
823;SDS011;373;49.342;8.146;2023-02-07T03:38:08;9.73;;;5.65;;
823;SDS011;373;49.342;8.146;2023-02-07T03:40:37;7.07;;;5.70;;
823;SDS011;373;49.342;8.146;2023-02-07T03:43:09;6.55;;;5.55;;
823;SDS011;373;49.342;8.146;2023-02-07T03:45:39;7.50;;;5.82;;
823;SDS011;373;49.342;8.146;2023-02-07T03:48:06;7.63;;;6.82;;
823;SDS011;373;49.342;8.146;2023-02-07T03:50:34;9.05;;;6.07;;
823;SDS011;373;49.342;8.146;2023-02-07T03:53:02;6.95;;;6.03;;
823;SDS011;373;49.342;8.146;2023-02-07T03:55:30;7.53;;;6.63;;
823;SDS011;373;49.342;8.146;2023-02-07T03:57:57;6.15;;;5.55;;
823;SDS011;373;49.342;8.146;2023-02-07T04:00:25;7.68;;;6.05;;
823;SDS011;373;49.342;8.146;2023-02-07T04:02:52;7.28;;;6.45;;
823;SDS011;373;49.342;8.146;2023-02-07T04:05:20;7.85;;;6.13;;
823;SDS011;373;49.342;8.146;2023-02-07T04:07:47;7.65;;;6.50;;
823;SDS011;373;49.342;8.146;2023-02-07T04:10:15;10.00;;;7.47;;
823;SDS011;373;49.342;8.146;2023-02-07T04:12:43;7.35;;;6.45;;
823;SDS011;373;49.342;8.146;2023-02-07T04:15:10;7.75;;;6.95;;
823;SDS011;373;49.342;8.146;2023-02-07T04:17:38;8.48;;;7.60;;
823;SDS011;373;49.342;8.146;2023-02-07T04:20:05;9.02;;;6.35;;
823;SDS011;373;49.342;8.146;2023-02-07T04:22:33;8.38;;;6.88;;
823;SDS011;373;49.342;8.146;2023-02-07T04:25:00;8.40;;;6.93;;
823;SDS011;373;49.342;8.146;2023-02-07T04:27:28;8.70;;;7.05;;
823;SDS011;373;49.342;8.146;2023-02-07T04:29:56;7.43;;;6.00;;
823;SDS011;373;49.342;8.146;2023-02-07T04:32:23;8.50;;;6.60;;
823;SDS011;373;49.342;8.146;2023-02-07T04:34:50;9.90;;;7.93;;
823;SDS011;373;49.342;8.146;2023-02-07T04:37:17;7.65;;;6.85;;
823;SDS011;373;49.342;8.146;2023-02-07T04:39:44;9.40;;;6.97;;
823;SDS011;373;49.342;8.146;2023-02-07T04:42:11;8.32;;;6.97;;
823;SDS011;373;49.342;8.146;2023-02-07T04:44:40;8.60;;;7.68;;
823;SDS011;373;49.342;8.146;2023-02-07T04:47:07;9.23;;;7.30;;
823;SDS011;373;49.342;8.146;2023-02-07T04:49:34;7.60;;;6.82;;
823;SDS011;373;49.342;8.146;2023-02-07T04:52:01;10.85;;;7.65;;
823;SDS011;373;49.342;8.146;2023-02-07T04:54:28;9.77;;;8.15;;
823;SDS011;373;49.342;8.146;2023-02-07T04:56:55;9.25;;;7.97;;
823;SDS011;373;49.342;8.146;2023-02-07T04:59:22;9.65;;;8.00;;
823;SDS011;373;49.342;8.146;2023-02-07T05:01:51;9.10;;;8.20;;
823;SDS011;373;49.342;8.146;2023-02-07T05:04:18;10.43;;;8.30;;
823;SDS011;373;49.342;8.146;2023-02-07T05:06:45;13.30;;;9.13;;
823;SDS011;373;49.342;8.146;2023-02-07T05:09:12;11.35;;;9.35;;
823;SDS011;373;49.342;8.146;2023-02-07T05:11:39;11.57;;;9.57;;
823;SDS011;373;49.342;8.146;2023-02-07T05:14:06;11.30;;;9.43;;
823;SDS011;373;49.342;8.146;2023-02-07T05:16:34;11.23;;;9.60;;
823;SDS011;373;49.342;8.146;2023-02-07T05:19:02;11.05;;;9.43;;
823;SDS011;373;49.342;8.146;2023-02-07T05:21:30;11.25;;;9.82;;
823;SDS011;373;49.342;8.146;2023-02-07T05:23:57;10.13;;;9.13;;
823;SDS011;373;49.342;8.146;2023-02-07T05:26:24;11.95;;;9.25;;
823;SDS011;373;49.342;8.146;2023-02-07T05:28:51;9.63;;;8.32;;
823;SDS011;373;49.342;8.146;2023-02-07T05:31:18;12.93;;;9.15;;
823;SDS011;373;49.342;8.146;2023-02-07T05:33:45;13.80;;;10.52;;
823;SDS011;373;49.342;8.146;2023-02-07T05:36:13;13.52;;;10.40;;
823;SDS011;373;49.342;8.146;2023-02-07T05:38:40;10.93;;;9.57;;
823;SDS011;373;49.342;8.146;2023-02-07T05:41:07;11.85;;;10.00;;
823;SDS011;373;49.342;8.146;2023-02-07T05:43:34;10.48;;;9.38;;
823;SDS011;373;49.342;8.146;2023-02-07T05:46:01;11.23;;;9.85;;
823;SDS011;373;49.342;8.146;2023-02-07T05:48:28;15.50;;;10.65;;
823;SDS011;373;49.342;8.146;2023-02-07T05:50:55;11.55;;;9.93;;
823;SDS011;373;49.342;8.146;2023-02-07T05:53:24;12.00;;;10.43;;
823;SDS011;373;49.342;8.146;2023-02-07T05:55:51;13.10;;;9.70;;
823;SDS011;373;49.342;8.146;2023-02-07T05:58:18;11.70;;;9.43;;
823;SDS011;373;49.342;8.146;2023-02-07T06:00:45;13.57;;;10.35;;
823;SDS011;373;49.342;8.146;2023-02-07T06:03:13;13.38;;;9.57;;
823;SDS011;373;49.342;8.146;2023-02-07T06:05:40;13.20;;;10.80;;
823;SDS011;373;49.342;8.146;2023-02-07T06:08:07;12.13;;;10.52;;
823;SDS011;373;49.342;8.146;2023-02-07T06:10:36;15.10;;;11.20;;
823;SDS011;373;49.342;8.146;2023-02-07T06:13:03;13.75;;;11.48;;
823;SDS011;373;49.342;8.146;2023-02-07T06:15:30;12.40;;;10.63;;
823;SDS011;373;49.342;8.146;2023-02-07T06:17:57;14.55;;;11.25;;
823;SDS011;373;49.342;8.146;2023-02-07T06:20:24;13.40;;;10.70;;
823;SDS011;373;49.342;8.146;2023-02-07T06:22:52;14.20;;;11.90;;
823;SDS011;373;49.342;8.146;2023-02-07T06:25:19;13.52;;;11.18;;
823;SDS011;373;49.342;8.146;2023-02-07T06:27:47;15.25;;;11.77;;
823;SDS011;373;49.342;8.146;2023-02-07T06:30:14;13.32;;;10.85;;
823;SDS011;373;49.342;8.146;2023-02-07T06:32:41;12.95;;;10.95;;
823;SDS011;373;49.342;8.146;2023-02-07T06:35:08;13.98;;;11.30;;
823;SDS011;373;49.342;8.146;2023-02-07T06:37:35;16.95;;;12.07;;
823;SDS011;373;49.342;8.146;2023-02-07T06:40:03;12.13;;;10.50;;
823;SDS011;373;49.342;8.146;2023-02-07T06:42:31;12.27;;;11.07;;
823;SDS011;373;49.342;8.146;2023-02-07T06:44:59;13.57;;;11.65;;
823;SDS011;373;49.342;8.146;2023-02-07T06:47:26;14.63;;;11.68;;
823;SDS011;373;49.342;8.146;2023-02-07T06:49:53;13.25;;;11.57;;
823;SDS011;373;49.342;8.146;2023-02-07T06:52:20;13.55;;;11.82;;
823;SDS011;373;49.342;8.146;2023-02-07T06:54:48;14.70;;;12.02;;
823;SDS011;373;49.342;8.146;2023-02-07T06:57:15;12.88;;;11.40;;
823;SDS011;373;49.342;8.146;2023-02-07T06:59:42;14.55;;;12.07;;
823;SDS011;373;49.342;8.146;2023-02-07T07:02:11;12.65;;;11.10;;
823;SDS011;373;49.342;8.146;2023-02-07T07:04:38;13.25;;;11.68;;
823;SDS011;373;49.342;8.146;2023-02-07T07:07:06;12.18;;;10.27;;
823;SDS011;373;49.342;8.146;2023-02-07T07:09:33;15.52;;;11.30;;
823;SDS011;373;49.342;8.146;2023-02-07T07:12:00;12.27;;;10.30;;
823;SDS011;373;49.342;8.146;2023-02-07T07:14:33;12.43;;;10.38;;
823;SDS011;373;49.342;8.146;2023-02-07T07:17:00;11.25;;;10.05;;
823;SDS011;373;49.342;8.146;2023-02-07T07:19:28;12.73;;;9.88;;
823;SDS011;373;49.342;8.146;2023-02-07T07:21:55;11.20;;;10.10;;
823;SDS011;373;49.342;8.146;2023-02-07T07:24:23;10.73;;;9.63;;
823;SDS011;373;49.342;8.146;2023-02-07T07:26:53;11.25;;;8.93;;
823;SDS011;373;49.342;8.146;2023-02-07T07:29:20;12.35;;;11.15;;
823;SDS011;373;49.342;8.146;2023-02-07T07:31:48;59.70;;;57.10;;
823;SDS011;373;49.342;8.146;2023-02-07T07:37:24;21.75;;;20.45;;
823;SDS011;373;49.342;8.146;2023-02-07T07:40:12;76.65;;;73.53;;
823;SDS011;373;49.342;8.146;2023-02-07T07:43:41;50.53;;;48.22;;
823;SDS011;373;49.342;8.146;2023-02-07T07:46:13;1999.90;;;999.90;;
823;SDS011;373;49.342;8.146;2023-02-07T07:49:06;1999.90;;;999.90;;
823;SDS011;373;49.342;8.146;2023-02-07T07:51:42;1999.90;;;999.90;;
823;SDS011;373;49.342;8.146;2023-02-07T07:54:12;1999.90;;;999.90;;
823;SDS011;373;49.342;8.146;2023-02-07T07:56:53;142.55;;;137.32;;
823;SDS011;373;49.342;8.146;2023-02-07T07:59:32;1999.90;;;999.90;;
823;SDS011;373;49.342;8.146;2023-02-07T08:02:13;101.32;;;97.35;;
823;SDS011;373;49.342;8.146;2023-02-07T08:04:50;76.93;;;73.60;;
823;SDS011;373;49.342;8.146;2023-02-07T08:07:33;43.47;;;41.42;;
823;SDS011;373;49.342;8.146;2023-02-07T08:13:24;39.45;;;37.58;;
823;SDS011;373;49.342;8.146;2023-02-07T08:16:02;20.10;;;18.83;;
823;SDS011;373;49.342;8.146;2023-02-07T08:18:37;12.88;;;11.77;;
823;SDS011;373;49.342;8.146;2023-02-07T08:21:15;13.00;;;12.10;;
823;SDS011;373;49.342;8.146;2023-02-07T08:24:00;11.85;;;10.77;;
823;SDS011;373;49.342;8.146;2023-02-07T08:26:38;10.52;;;9.20;;
823;SDS011;373;49.342;8.146;2023-02-07T08:29:13;11.15;;;10.15;;
823;SDS011;373;49.342;8.146;2023-02-07T08:31:45;9.40;;;8.52;;
823;SDS011;373;49.342;8.146;2023-02-07T08:34:26;8.73;;;7.82;;
823;SDS011;373;49.342;8.146;2023-02-07T08:37:11;8.02;;;7.28;;
823;SDS011;373;49.342;8.146;2023-02-07T08:39:47;9.15;;;7.35;;
823;SDS011;373;49.342;8.146;2023-02-07T08:42:20;8.55;;;7.68;;
823;SDS011;373;49.342;8.146;2023-02-07T08:45:09;9.02;;;8.13;;
823;SDS011;373;49.342;8.146;2023-02-07T08:47:38;8.43;;;7.35;;
823;SDS011;373;49.342;8.146;2023-02-07T08:50:18;8.32;;;7.53;;
823;SDS011;373;49.342;8.146;2023-02-07T08:53:10;7.78;;;7.07;;
823;SDS011;373;49.342;8.146;2023-02-07T08:55:49;9.30;;;8.32;;
823;SDS011;373;49.342;8.146;2023-02-07T08:58:20;7.65;;;7.00;;
823;SDS011;373;49.342;8.146;2023-02-07T09:01:04;18.40;;;8.98;;
823;SDS011;373;49.342;8.146;2023-02-07T09:03:35;8.02;;;7.35;;
823;SDS011;373;49.342;8.146;2023-02-07T09:06:05;8.18;;;6.85;;
823;SDS011;373;49.342;8.146;2023-02-07T09:08:32;8.23;;;6.57;;
823;SDS011;373;49.342;8.146;2023-02-07T09:11:10;7.82;;;7.13;;
823;SDS011;373;49.342;8.146;2023-02-07T09:14:07;6.93;;;6.32;;
823;SDS011;373;49.342;8.146;2023-02-07T09:16:46;8.90;;;7.40;;
823;SDS011;373;49.342;8.146;2023-02-07T09:19:29;8.45;;;7.40;;
823;SDS011;373;49.342;8.146;2023-02-07T09:22:27;8.27;;;7.30;;
823;SDS011;373;49.342;8.146;2023-02-07T09:26:38;8.38;;;7.25;;
823;SDS011;373;49.342;8.146;2023-02-07T09:29:44;8.88;;;7.40;;
823;SDS011;373;49.342;8.146;2023-02-07T09:32:21;8.68;;;7.88;;
823;SDS011;373;49.342;8.146;2023-02-07T09:35:14;8.52;;;7.82;;
823;SDS011;373;49.342;8.146;2023-02-07T09:38:24;8.50;;;7.80;;
823;SDS011;373;49.342;8.146;2023-02-07T09:41:19;8.57;;;7.40;;
823;SDS011;373;49.342;8.146;2023-02-07T09:44:19;10.55;;;7.90;;
823;SDS011;373;49.342;8.146;2023-02-07T09:47:36;8.60;;;7.53;;
823;SDS011;373;49.342;8.146;2023-02-07T09:50:38;7.63;;;6.93;;
823;SDS011;373;49.342;8.146;2023-02-07T09:53:21;7.57;;;6.97;;
823;SDS011;373;49.342;8.146;2023-02-07T09:59:14;7.30;;;6.60;;
823;SDS011;373;49.342;8.146;2023-02-07T10:02:15;8.13;;;7.25;;
823;SDS011;373;49.342;8.146;2023-02-07T10:05:39;7.93;;;7.22;;
823;SDS011;373;49.342;8.146;2023-02-07T10:08:42;7.72;;;7.03;;
823;SDS011;373;49.342;8.146;2023-02-07T10:11:28;8.20;;;7.43;;
823;SDS011;373;49.342;8.146;2023-02-07T10:14:45;7.68;;;6.97;;
823;SDS011;373;49.342;8.146;2023-02-07T10:18:14;8.93;;;8.02;;
823;SDS011;373;49.342;8.146;2023-02-07T10:32:50;8.20;;;7.50;;
823;SDS011;373;49.342;8.146;2023-02-07T10:35:18;8.40;;;7.55;;
823;SDS011;373;49.342;8.146;2023-02-07T10:37:49;9.00;;;7.25;;
823;SDS011;373;49.342;8.146;2023-02-07T10:40:21;8.02;;;7.30;;
823;SDS011;373;49.342;8.146;2023-02-07T10:42:53;8.70;;;7.80;;
823;SDS011;373;49.342;8.146;2023-02-07T10:45:25;8.98;;;7.63;;
823;SDS011;373;49.342;8.146;2023-02-07T10:47:52;8.52;;;7.68;;
823;SDS011;373;49.342;8.146;2023-02-07T10:50:21;8.13;;;7.43;;
823;SDS011;373;49.342;8.146;2023-02-07T10:52:55;9.38;;;7.38;;
823;SDS011;373;49.342;8.146;2023-02-07T10:55:33;7.45;;;6.85;;
823;SDS011;373;49.342;8.146;2023-02-07T10:58:02;7.65;;;6.97;;
823;SDS011;373;49.342;8.146;2023-02-07T11:00:30;7.55;;;6.85;;
823;SDS011;373;49.342;8.146;2023-02-07T11:03:01;7.60;;;6.93;;
823;SDS011;373;49.342;8.146;2023-02-07T11:05:31;8.05;;;7.35;;
823;SDS011;373;49.342;8.146;2023-02-07T11:08:20;8.40;;;7.60;;
823;SDS011;373;49.342;8.146;2023-02-07T11:10:50;7.43;;;6.72;;
823;SDS011;373;49.342;8.146;2023-02-07T11:13:19;8.88;;;7.97;;
823;SDS011;373;49.342;8.146;2023-02-07T11:15:49;7.80;;;7.10;;
823;SDS011;373;49.342;8.146;2023-02-07T11:18:26;8.50;;;7.78;;
823;SDS011;373;49.342;8.146;2023-02-07T11:21:02;8.73;;;7.82;;
823;SDS011;373;49.342;8.146;2023-02-07T11:23:33;8.70;;;7.90;;
823;SDS011;373;49.342;8.146;2023-02-07T11:26:00;7.90;;;7.20;;
823;SDS011;373;49.342;8.146;2023-02-07T11:28:28;8.70;;;7.90;;
823;SDS011;373;49.342;8.146;2023-02-07T11:30:58;8.88;;;8.02;;
823;SDS011;373;49.342;8.146;2023-02-07T11:33:30;8.35;;;7.53;;
823;SDS011;373;49.342;8.146;2023-02-07T11:36:02;9.27;;;8.20;;
823;SDS011;373;49.342;8.146;2023-02-07T11:38:37;8.80;;;8.00;;
823;SDS011;373;49.342;8.146;2023-02-07T11:41:09;9.55;;;8.65;;
823;SDS011;373;49.342;8.146;2023-02-07T11:43:56;8.05;;;7.35;;
823;SDS011;373;49.342;8.146;2023-02-07T11:46:34;9.07;;;8.18;;
823;SDS011;373;49.342;8.146;2023-02-07T11:49:03;8.68;;;7.88;;
823;SDS011;373;49.342;8.146;2023-02-07T11:51:33;8.70;;;7.80;;
823;SDS011;373;49.342;8.146;2023-02-07T11:54:03;8.95;;;8.07;;
823;SDS011;373;49.342;8.146;2023-02-07T11:56:33;8.63;;;7.78;;
823;SDS011;373;49.342;8.146;2023-02-07T11:59:04;8.93;;;8.02;;
823;SDS011;373;49.342;8.146;2023-02-07T12:01:33;8.48;;;7.68;;
823;SDS011;373;49.342;8.146;2023-02-07T12:04:05;8.55;;;7.75;;
823;SDS011;373;49.342;8.146;2023-02-07T12:06:36;8.63;;;7.35;;
823;SDS011;373;49.342;8.146;2023-02-07T12:09:11;8.15;;;7.45;;
823;SDS011;373;49.342;8.146;2023-02-07T12:11:48;8.88;;;8.07;;
823;SDS011;373;49.342;8.146;2023-02-07T12:14:21;9.88;;;8.20;;
823;SDS011;373;49.342;8.146;2023-02-07T12:16:54;8.10;;;7.32;;
823;SDS011;373;49.342;8.146;2023-02-07T12:19:24;8.98;;;8.18;;
823;SDS011;373;49.342;8.146;2023-02-07T12:21:59;8.60;;;7.70;;
823;SDS011;373;49.342;8.146;2023-02-07T12:24:32;8.15;;;7.35;;
823;SDS011;373;49.342;8.146;2023-02-07T12:27:05;8.57;;;7.78;;
823;SDS011;373;49.342;8.146;2023-02-07T12:29:46;9.23;;;8.30;;
823;SDS011;373;49.342;8.146;2023-02-07T12:32:22;8.32;;;7.53;;
823;SDS011;373;49.342;8.146;2023-02-07T12:34:58;8.75;;;7.85;;
823;SDS011;373;49.342;8.146;2023-02-07T12:37:31;8.95;;;8.05;;
823;SDS011;373;49.342;8.146;2023-02-07T12:40:11;8.10;;;7.30;;
823;SDS011;373;49.342;8.146;2023-02-07T12:42:46;7.95;;;7.15;;
823;SDS011;373;49.342;8.146;2023-02-07T12:45:22;11.50;;;8.52;;
823;SDS011;373;49.342;8.146;2023-02-07T12:48:00;8.93;;;7.93;;
823;SDS011;373;49.342;8.146;2023-02-07T12:50:46;8.38;;;7.25;;
823;SDS011;373;49.342;8.146;2023-02-07T12:53:25;8.50;;;7.35;;
823;SDS011;373;49.342;8.146;2023-02-07T12:56:07;9.23;;;8.32;;
823;SDS011;373;49.342;8.146;2023-02-07T12:58:46;8.32;;;7.40;;
823;SDS011;373;49.342;8.146;2023-02-07T13:01:17;8.75;;;7.85;;
823;SDS011;373;49.342;8.146;2023-02-07T13:04:03;9.30;;;8.40;;
823;SDS011;373;49.342;8.146;2023-02-07T13:06:59;9.20;;;8.20;;
823;SDS011;373;49.342;8.146;2023-02-07T13:09:36;8.50;;;7.63;;
823;SDS011;373;49.342;8.146;2023-02-07T13:12:10;9.35;;;7.65;;
823;SDS011;373;49.342;8.146;2023-02-07T13:14:49;8.63;;;7.72;;
823;SDS011;373;49.342;8.146;2023-02-07T13:17:33;10.20;;;7.53;;
823;SDS011;373;49.342;8.146;2023-02-07T13:20:11;10.23;;;8.30;;
823;SDS011;373;49.342;8.146;2023-02-07T13:22:56;9.98;;;8.05;;
823;SDS011;373;49.342;8.146;2023-02-07T13:25:26;9.45;;;8.25;;
823;SDS011;373;49.342;8.146;2023-02-07T13:27:58;8.95;;;7.60;;
823;SDS011;373;49.342;8.146;2023-02-07T13:30:32;8.52;;;7.65;;
823;SDS011;373;49.342;8.146;2023-02-07T13:33:02;10.88;;;7.78;;
823;SDS011;373;49.342;8.146;2023-02-07T13:35:39;10.52;;;7.75;;
823;SDS011;373;49.342;8.146;2023-02-07T13:38:10;10.43;;;9.02;;
823;SDS011;373;49.342;8.146;2023-02-07T13:40:46;10.32;;;8.20;;
823;SDS011;373;49.342;8.146;2023-02-07T13:43:22;8.20;;;7.38;;
823;SDS011;373;49.342;8.146;2023-02-07T13:45:59;9.13;;;7.68;;
823;SDS011;373;49.342;8.146;2023-02-07T13:48:33;8.20;;;7.32;;
823;SDS011;373;49.342;8.146;2023-02-07T13:51:09;9.35;;;8.23;;
823;SDS011;373;49.342;8.146;2023-02-07T13:53:45;9.82;;;8.93;;
823;SDS011;373;49.342;8.146;2023-02-07T13:56:29;8.82;;;7.93;;
823;SDS011;373;49.342;8.146;2023-02-07T14:02:05;11.80;;;8.68;;
823;SDS011;373;49.342;8.146;2023-02-07T14:04:45;8.95;;;7.97;;
823;SDS011;373;49.342;8.146;2023-02-07T14:07:17;9.43;;;8.52;;
823;SDS011;373;49.342;8.146;2023-02-07T14:09:48;10.35;;;9.25;;
823;SDS011;373;49.342;8.146;2023-02-07T14:12:20;9.00;;;7.70;;
823;SDS011;373;49.342;8.146;2023-02-07T14:14:52;10.77;;;9.43;;
823;SDS011;373;49.342;8.146;2023-02-07T14:23:16;10.63;;;8.63;;
823;SDS011;373;49.342;8.146;2023-02-07T14:25:44;9.95;;;8.88;;
823;SDS011;373;49.342;8.146;2023-02-07T14:28:17;9.15;;;8.18;;
823;SDS011;373;49.342;8.146;2023-02-07T14:30:59;10.05;;;9.05;;
823;SDS011;373;49.342;8.146;2023-02-07T14:33:36;9.02;;;8.05;;
823;SDS011;373;49.342;8.146;2023-02-07T14:36:06;9.25;;;8.25;;
823;SDS011;373;49.342;8.146;2023-02-07T14:39:00;9.40;;;7.97;;
823;SDS011;373;49.342;8.146;2023-02-07T14:41:31;11.07;;;8.35;;
823;SDS011;373;49.342;8.146;2023-02-07T14:44:02;11.15;;;8.85;;
823;SDS011;373;49.342;8.146;2023-02-07T14:46:33;11.13;;;8.32;;
823;SDS011;373;49.342;8.146;2023-02-07T14:49:03;10.10;;;8.43;;
823;SDS011;373;49.342;8.146;2023-02-07T14:51:38;8.85;;;7.93;;
823;SDS011;373;49.342;8.146;2023-02-07T14:54:13;10.98;;;9.00;;
823;SDS011;373;49.342;8.146;2023-02-07T14:56:48;10.07;;;8.32;;
823;SDS011;373;49.342;8.146;2023-02-07T14:59:22;10.25;;;9.13;;
823;SDS011;373;49.342;8.146;2023-02-07T15:01:55;9.68;;;8.68;;
823;SDS011;373;49.342;8.146;2023-02-07T15:04:22;10.88;;;8.32;;
823;SDS011;373;49.342;8.146;2023-02-07T15:06:49;11.07;;;8.50;;
823;SDS011;373;49.342;8.146;2023-02-07T15:09:18;9.55;;;8.38;;
823;SDS011;373;49.342;8.146;2023-02-07T15:11:48;11.50;;;9.00;;
823;SDS011;373;49.342;8.146;2023-02-07T15:14:25;9.55;;;8.38;;
823;SDS011;373;49.342;8.146;2023-02-07T15:16:57;11.27;;;9.32;;
823;SDS011;373;49.342;8.146;2023-02-07T15:19:27;9.27;;;8.38;;
823;SDS011;373;49.342;8.146;2023-02-07T15:21:58;11.43;;;10.00;;
823;SDS011;373;49.342;8.146;2023-02-07T15:24:26;10.90;;;9.57;;
823;SDS011;373;49.342;8.146;2023-02-07T15:26:56;12.43;;;9.27;;
823;SDS011;373;49.342;8.146;2023-02-07T15:29:26;13.25;;;9.25;;
823;SDS011;373;49.342;8.146;2023-02-07T15:31:54;9.68;;;8.40;;
823;SDS011;373;49.342;8.146;2023-02-07T15:34:24;10.68;;;9.23;;
823;SDS011;373;49.342;8.146;2023-02-07T15:36:56;9.52;;;8.07;;
823;SDS011;373;49.342;8.146;2023-02-07T15:39:28;10.32;;;8.35;;
823;SDS011;373;49.342;8.146;2023-02-07T15:41:56;9.13;;;7.85;;
823;SDS011;373;49.342;8.146;2023-02-07T15:44:24;10.57;;;9.07;;
823;SDS011;373;49.342;8.146;2023-02-07T15:46:52;10.85;;;8.85;;
823;SDS011;373;49.342;8.146;2023-02-07T15:52:11;10.30;;;8.95;;
823;SDS011;373;49.342;8.146;2023-02-07T15:54:42;12.15;;;9.30;;
823;SDS011;373;49.342;8.146;2023-02-07T15:57:17;10.57;;;8.75;;
823;SDS011;373;49.342;8.146;2023-02-07T15:59:48;10.13;;;8.43;;
823;SDS011;373;49.342;8.146;2023-02-07T16:02:19;10.25;;;9.05;;
823;SDS011;373;49.342;8.146;2023-02-07T16:04:51;11.82;;;9.73;;
823;SDS011;373;49.342;8.146;2023-02-07T16:07:18;11.23;;;8.80;;
823;SDS011;373;49.342;8.146;2023-02-07T16:09:47;10.13;;;9.13;;
823;SDS011;373;49.342;8.146;2023-02-07T16:15:22;11.57;;;9.02;;
823;SDS011;373;49.342;8.146;2023-02-07T16:17:51;14.70;;;9.07;;
823;SDS011;373;49.342;8.146;2023-02-07T16:20:20;13.85;;;9.73;;
823;SDS011;373;49.342;8.146;2023-02-07T16:22:48;11.05;;;9.15;;
823;SDS011;373;49.342;8.146;2023-02-07T16:25:17;11.32;;;8.77;;
823;SDS011;373;49.342;8.146;2023-02-07T16:27:47;10.18;;;8.30;;
823;SDS011;373;49.342;8.146;2023-02-07T16:30:17;10.98;;;8.80;;
823;SDS011;373;49.342;8.146;2023-02-07T16:32:47;10.20;;;9.07;;
823;SDS011;373;49.342;8.146;2023-02-07T16:35:15;13.07;;;10.05;;
823;SDS011;373;49.342;8.146;2023-02-07T16:37:45;11.20;;;9.43;;
823;SDS011;373;49.342;8.146;2023-02-07T16:40:12;12.23;;;10.57;;
823;SDS011;373;49.342;8.146;2023-02-07T16:42:40;13.98;;;10.88;;
823;SDS011;373;49.342;8.146;2023-02-07T16:45:18;12.65;;;10.25;;
823;SDS011;373;49.342;8.146;2023-02-07T16:47:47;15.90;;;11.27;;
823;SDS011;373;49.342;8.146;2023-02-07T16:50:15;12.50;;;11.20;;
823;SDS011;373;49.342;8.146;2023-02-07T16:52:45;14.63;;;11.35;;
823;SDS011;373;49.342;8.146;2023-02-07T16:55:13;14.80;;;11.15;;
823;SDS011;373;49.342;8.146;2023-02-07T16:57:41;15.07;;;10.90;;